createdAt,value
2017-04-01T00:00:42.909Z,100
2017-04-01T00:01:41.322Z,100
2017-04-01T00:02:41.714Z,59
2017-04-01T00:03:41.614Z,94
2017-04-01T00:04:41.279Z,63
2017-04-01T00:05:41.282Z,88
2017-04-01T00:06:41.255Z,88
2017-04-01T00:07:41.554Z,61
2017-04-01T00:08:41.631Z,100
2017-04-01T00:09:41.220Z,68
2017-04-01T00:10:41.207Z,81
2017-04-01T00:11:41.936Z,83
2017-04-01T00:12:42.230Z,61
2017-04-01T00:13:41.754Z,68
2017-04-01T00:14:42.212Z,67
2017-04-01T00:15:41.741Z,68
2017-04-01T00:16:40.836Z,100
2017-04-01T00:17:41.321Z,64
2017-04-01T00:18:40.829Z,65
2017-04-01T00:19:41.153Z,81
2017-04-01T00:20:41.461Z,69
2017-04-01T00:21:41.098Z,80
2017-04-01T00:22:41.076Z,66
2017-04-01T00:23:41.653Z,61
2017-04-01T00:24:41.375Z,83
2017-04-01T00:25:41.753Z,100
2017-04-01T00:26:41.995Z,78
2017-04-01T00:27:42.223Z,100
2017-04-01T00:28:42.105Z,90
2017-04-01T00:29:42.121Z,68
2017-04-01T00:30:42.282Z,60
2017-04-01T00:31:41.289Z,66
2017-04-01T00:32:41.268Z,92
2017-04-01T00:33:40.625Z,85
2017-04-01T00:34:40.947Z,80
2017-04-01T00:35:40.925Z,64
2017-04-01T00:36:41.220Z,60
2017-04-01T00:37:40.891Z,71
2017-04-01T00:38:41.198Z,78
2017-04-01T00:39:40.889Z,98
2017-04-01T00:40:40.868Z,77
2017-04-01T00:41:41.461Z,76
2017-04-01T00:42:40.837Z,61
2017-04-01T00:43:41.152Z,76
2017-04-01T00:44:42.035Z,62
2017-04-01T00:45:40.793Z,55
2017-04-01T00:46:41.100Z,83
2017-04-01T00:47:40.779Z,58
2017-04-01T00:48:40.447Z,75
2017-04-01T00:49:40.737Z,60
2017-04-01T00:50:40.742Z,59
2017-04-01T00:51:41.073Z,100
2017-04-01T00:52:41.149Z,66
2017-04-01T00:53:40.833Z,76
2017-04-01T00:54:40.687Z,79
2017-04-01T00:55:40.984Z,73
2017-04-01T00:56:40.676Z,61
2017-04-01T00:57:40.954Z,67
2017-04-01T00:58:40.672Z,89
2017-04-01T00:59:40.629Z,86
2017-04-01T01:00:40.298Z,59
2017-04-01T01:01:40.926Z,56
2017-04-01T01:02:40.905Z,75
2017-04-01T01:03:40.896Z,67
2017-04-01T01:04:40.564Z,61
2017-04-01T01:05:40.534Z,100
2017-04-01T01:06:40.545Z,58
2017-04-01T01:07:40.511Z,73
2017-04-01T01:08:40.576Z,82
2017-04-01T01:09:40.483Z,59
2017-04-01T01:10:41.269Z,100
2017-04-01T01:11:41.331Z,56
2017-04-01T01:12:41.192Z,61
2017-04-01T01:13:41.113Z,100
2017-04-01T01:14:40.981Z,82
2017-04-01T01:15:40.438Z,79
2017-04-01T01:16:40.668Z,79
2017-04-01T01:17:41.137Z,97
2017-04-01T01:18:40.576Z,70
2017-04-01T01:19:41.079Z,71
2017-04-01T01:20:41.389Z,54
2017-04-01T01:21:40.753Z,100
2017-04-01T01:22:40.437Z,67
2017-04-01T01:23:41.187Z,81
2017-04-01T01:24:40.997Z,100
2017-04-01T01:25:40.598Z,63
2017-04-01T01:26:40.581Z,56
2017-04-01T01:27:40.632Z,56
2017-04-01T01:28:40.574Z,55
2017-04-01T01:29:41.229Z,87
2017-04-01T01:30:40.546Z,53
2017-04-01T01:31:39.898Z,100
2017-04-01T01:32:40.287Z,85
2017-04-01T01:33:39.879Z,100
2017-04-01T01:34:39.844Z,78
2017-04-01T01:35:41.109Z,78
2017-04-01T01:36:40.791Z,96
2017-04-01T01:37:41.201Z,77
2017-04-01T01:38:41.233Z,95
2017-04-01T01:39:40.227Z,79
2017-04-01T01:40:40.292Z,88
2017-04-01T01:41:40.092Z,99
2017-04-01T01:42:40.379Z,55
2017-04-01T01:43:40.058Z,46
2017-04-01T01:44:40.357Z,44
2017-04-01T01:45:40.030Z,57
2017-04-01T01:46:39.704Z,67
2017-04-01T01:47:41.069Z,96
2017-04-01T01:48:40.303Z,100
2017-04-01T01:49:40.612Z,47
2017-04-01T01:50:40.370Z,60
2017-04-01T01:51:40.066Z,54
2017-04-01T01:52:40.440Z,100
2017-04-01T01:53:40.524Z,52
2017-04-01T01:54:40.659Z,68
2017-04-01T01:55:39.891Z,73
2017-04-01T01:56:40.201Z,52
2017-04-01T01:57:40.185Z,100
2017-04-01T01:58:40.170Z,50
2017-04-01T01:59:40.159Z,66
2017-04-01T02:00:40.154Z,59
2017-04-01T02:01:40.299Z,100
2017-04-01T02:02:39.808Z,100
2017-04-01T02:03:40.709Z,62
2017-04-01T02:04:40.553Z,100
2017-04-01T02:05:40.825Z,63
2017-04-01T02:06:40.117Z,100
2017-04-01T02:07:40.340Z,46
2017-04-01T02:08:40.549Z,51
2017-04-01T02:09:40.876Z,97
2017-04-01T02:10:39.699Z,100
2017-04-01T02:11:39.998Z,100
2017-04-01T02:12:39.363Z,67
2017-04-01T02:13:39.971Z,51
2017-04-01T02:14:40.029Z,60
2017-04-01T02:15:39.323Z,100
2017-04-01T02:16:40.595Z,48
2017-04-01T02:17:39.658Z,100
2017-04-01T02:18:40.553Z,58
2017-04-01T02:19:39.737Z,100
2017-04-01T02:20:40.215Z,100
2017-04-01T02:21:40.209Z,100
2017-04-01T02:22:40.229Z,64
2017-04-01T02:23:40.132Z,73
2017-04-01T02:24:40.071Z,52
2017-04-01T02:25:40.686Z,71
2017-04-01T02:26:40.479Z,52
2017-04-01T02:27:39.468Z,51
2017-04-01T02:28:39.288Z,51
2017-04-01T02:29:39.440Z,63
2017-04-01T02:30:39.976Z,49
2017-04-01T02:31:39.115Z,56
2017-04-01T02:32:40.068Z,68
2017-04-01T02:33:39.396Z,56
2017-04-01T02:34:39.703Z,67
2017-04-01T02:35:39.738Z,73
2017-04-01T02:36:40.586Z,56
2017-04-01T02:37:40.145Z,74
2017-04-01T02:38:40.250Z,100
2017-04-01T02:39:40.130Z,54
2017-04-01T02:40:38.992Z,73
2017-04-01T02:41:39.643Z,57
2017-04-01T02:42:39.494Z,69
2017-04-01T02:43:39.271Z,66
2017-04-01T02:44:39.572Z,48
2017-04-01T02:45:40.149Z,52
2017-04-01T02:46:39.552Z,100
2017-04-01T02:47:39.204Z,53
2017-04-01T02:48:39.200Z,46
2017-04-01T02:49:39.505Z,66
2017-04-01T02:50:39.965Z,59
2017-04-01T02:51:39.151Z,45
2017-04-01T02:52:39.169Z,100
2017-04-01T02:53:39.121Z,48
2017-04-01T02:54:40.593Z,63
2017-04-01T02:55:38.957Z,46
2017-04-01T02:56:39.125Z,51
2017-04-01T02:57:39.505Z,63
2017-04-01T02:58:39.082Z,72
2017-04-01T02:59:40.090Z,62
2017-04-01T03:00:39.339Z,64
2017-04-01T03:01:39.321Z,74
2017-04-01T03:02:38.946Z,55
2017-04-01T03:03:38.998Z,90
2017-04-01T03:04:38.964Z,51
2017-04-01T03:05:39.437Z,46
2017-04-01T03:06:40.084Z,49
2017-04-01T03:07:39.887Z,50
2017-04-01T03:08:39.892Z,93
2017-04-01T03:09:39.007Z,67
2017-04-01T03:10:39.027Z,59
2017-04-01T03:11:39.367Z,47
2017-04-01T03:12:39.004Z,65
2017-04-01T03:13:39.246Z,51
2017-04-01T03:14:38.705Z,72
2017-04-01T03:15:38.516Z,100
2017-04-01T03:16:39.309Z,56
2017-04-01T03:17:38.803Z,55
2017-04-01T03:18:38.586Z,66
2017-04-01T03:19:38.483Z,72
2017-04-01T03:21:39.148Z,51
2017-04-01T03:22:39.252Z,38
2017-04-01T03:23:38.870Z,15
2017-04-01T03:24:40.033Z,63
2017-04-01T03:25:38.595Z,53
2017-04-01T03:26:38.369Z,30
2017-04-01T03:27:38.657Z,57
2017-04-01T03:29:39.073Z,17
2017-04-01T03:32:38.897Z,70
2017-04-01T03:33:38.576Z,27
2017-04-01T03:34:38.255Z,23
2017-04-01T03:35:38.234Z,32
2017-04-01T03:36:38.858Z,24
2017-04-01T03:37:38.830Z,48
2017-04-01T03:38:38.189Z,54
2017-04-01T03:40:39.693Z,69
2017-04-01T03:41:38.493Z,43
2017-04-01T03:42:37.843Z,98
2017-04-01T03:43:38.904Z,60
2017-04-01T03:44:38.111Z,51
2017-04-01T03:45:39.005Z,43
2017-04-01T03:46:38.407Z,36
2017-04-01T03:47:38.070Z,68
2017-04-01T03:48:38.373Z,15
2017-04-01T03:49:39.057Z,53
2017-04-01T03:50:38.677Z,71
2017-04-01T03:51:38.637Z,36
2017-04-01T03:52:39.139Z,89
2017-04-01T03:53:39.187Z,65
2017-04-01T03:54:39.445Z,100
2017-04-01T03:56:38.261Z,58
2017-04-01T03:57:38.981Z,68
2017-04-01T03:58:38.229Z,54
2017-04-01T03:59:38.219Z,56
2017-04-01T04:00:38.525Z,100
2017-04-01T04:01:38.510Z,100
2017-04-01T04:02:38.215Z,48
2017-04-01T04:03:38.197Z,19
2017-04-01T04:04:38.190Z,100
2017-04-01T04:05:38.488Z,49
2017-04-01T04:06:38.431Z,38
2017-04-01T04:07:38.934Z,93
2017-04-01T04:08:38.877Z,19
2017-04-01T04:09:39.125Z,57
2017-04-01T04:10:38.325Z,90
2017-04-01T04:11:38.728Z,56
2017-04-01T04:12:38.248Z,57
2017-04-01T04:13:38.032Z,41
2017-04-01T04:14:38.067Z,49
2017-04-01T04:15:38.348Z,71
2017-04-01T04:16:38.323Z,100
2017-04-01T04:17:38.295Z,3
2017-04-01T04:18:38.029Z,100
2017-04-01T04:19:38.281Z,41
2017-04-01T04:20:37.628Z,14
2017-04-01T04:21:37.616Z,1
2017-04-01T04:22:38.930Z,100
2017-04-01T04:23:38.664Z,40
2017-04-01T04:24:39.139Z,42
2017-04-01T04:25:37.877Z,49
2017-04-01T04:26:38.406Z,50
2017-04-01T04:27:38.153Z,38
2017-04-01T04:28:37.818Z,30
2017-04-01T04:29:37.811Z,19
2017-04-01T04:30:38.106Z,48
2017-04-01T04:31:38.041Z,49
2017-04-01T04:33:38.130Z,23
2017-04-01T04:34:38.043Z,68
2017-04-01T04:35:37.788Z,42
2017-04-01T04:36:38.007Z,42
2017-04-01T04:37:38.755Z,23
2017-04-01T04:39:39.453Z,52
2017-04-01T04:40:37.660Z,24
2017-04-01T04:41:38.299Z,9
2017-04-01T04:42:37.893Z,62
2017-04-01T04:43:37.618Z,53
2017-04-01T04:44:37.298Z,80
2017-04-01T04:45:37.268Z,77
2017-04-01T04:46:36.942Z,100
2017-04-01T04:47:38.001Z,83
2017-04-01T04:48:37.858Z,55
2017-04-01T04:49:37.532Z,56
2017-04-01T04:50:37.543Z,11
2017-04-01T04:51:37.521Z,2
2017-04-01T04:52:37.915Z,63
2017-04-01T04:54:37.976Z,64
2017-04-01T04:55:38.132Z,50
2017-04-01T04:56:37.880Z,50
2017-04-01T04:57:38.021Z,66
2017-04-01T04:59:37.245Z,100
2017-04-01T05:00:37.505Z,100
2017-04-01T05:01:38.344Z,100
2017-04-01T05:02:38.050Z,100
2017-04-01T05:03:37.734Z,38
2017-04-01T05:04:37.309Z,68
2017-04-01T05:05:38.742Z,34
2017-04-01T05:06:38.537Z,100
2017-04-01T05:07:38.810Z,38
2017-04-01T05:08:38.447Z,21
2017-04-01T05:10:37.823Z,21
2017-04-01T05:11:37.520Z,36
2017-04-01T05:12:37.503Z,56
2017-04-01T05:13:37.171Z,21
2017-04-01T05:14:37.479Z,74
2017-04-01T05:15:37.138Z,100
2017-04-01T05:16:37.135Z,61
2017-04-01T05:17:37.445Z,44
2017-04-01T05:18:37.423Z,57
2017-04-01T05:19:37.079Z,82
2017-04-01T05:20:37.395Z,5
2017-04-01T05:21:38.618Z,50
2017-04-01T05:22:38.875Z,35
2017-04-01T05:23:38.647Z,67
2017-04-01T05:24:37.839Z,42
2017-04-01T05:25:37.405Z,52
2017-04-01T05:26:36.998Z,37
2017-04-01T05:27:37.302Z,81
2017-04-01T05:28:37.287Z,78
2017-04-01T05:29:36.945Z,74
2017-04-01T05:30:37.253Z,54
2017-04-01T05:31:37.240Z,49
2017-04-01T05:32:37.213Z,40
2017-04-01T05:33:36.252Z,41
2017-04-01T05:34:37.215Z,54
2017-04-01T05:35:37.233Z,51
2017-04-01T05:36:37.549Z,39
2017-04-01T05:37:37.817Z,32
2017-04-01T05:38:37.820Z,37
2017-04-01T05:39:37.383Z,48
2017-04-01T05:40:37.110Z,49
2017-04-01T05:41:37.088Z,36
2017-04-01T05:42:37.072Z,33
2017-04-01T05:43:37.060Z,48
2017-04-01T05:44:36.730Z,36
2017-04-01T05:45:36.709Z,52
2017-04-01T05:46:37.035Z,42
2017-04-01T05:47:37.018Z,42
2017-04-01T05:48:37.559Z,42
2017-04-01T05:49:36.388Z,42
2017-04-01T05:50:37.766Z,50
2017-04-01T05:51:38.491Z,42
2017-04-01T05:52:38.190Z,49
2017-04-01T05:53:37.916Z,36
2017-04-01T05:54:38.129Z,40
2017-04-01T05:55:36.588Z,100
2017-04-01T05:56:37.069Z,51
2017-04-01T05:57:36.891Z,39
2017-04-01T05:58:36.567Z,46
2017-04-01T05:59:36.851Z,82
2017-04-01T06:00:36.854Z,36
2017-04-01T06:01:36.820Z,35
2017-04-01T06:02:36.809Z,78
2017-04-01T06:03:37.251Z,45
2017-04-01T06:04:37.237Z,45
2017-04-01T06:05:36.877Z,37
2017-04-01T06:06:36.996Z,46
2017-04-01T06:07:37.125Z,38
2017-04-01T06:08:37.658Z,46
2017-04-01T06:09:37.378Z,37
2017-04-01T06:10:36.359Z,45
2017-04-01T06:11:36.609Z,33
2017-04-01T06:12:36.644Z,38
2017-04-01T06:13:36.753Z,33
2017-04-01T06:14:36.617Z,36
2017-04-01T06:15:37.080Z,38
2017-04-01T06:16:36.472Z,42
2017-04-01T06:17:36.575Z,42
2017-04-01T06:18:36.254Z,43
2017-04-01T06:19:36.561Z,42
2017-04-01T06:20:36.456Z,45
2017-04-01T06:21:36.907Z,46
2017-04-01T06:22:37.312Z,39
2017-04-01T06:23:37.037Z,34
2017-04-01T06:24:36.260Z,37
2017-04-01T06:25:36.472Z,100
2017-04-01T06:26:36.464Z,49
2017-04-01T06:27:36.130Z,50
2017-04-01T06:28:36.112Z,40
2017-04-01T06:29:36.448Z,40
2017-04-01T06:30:35.783Z,38
2017-04-01T06:31:36.085Z,37
2017-04-01T06:32:36.072Z,33
2017-04-01T06:33:36.363Z,100
2017-04-01T06:34:36.050Z,44
2017-04-01T06:35:36.330Z,49
2017-04-01T06:36:36.011Z,34
2017-04-01T06:37:36.601Z,54
2017-04-01T06:38:36.316Z,34
2017-04-01T06:39:36.477Z,49
2017-04-01T06:40:35.717Z,32
2017-04-01T06:41:36.255Z,48
2017-04-01T06:42:36.136Z,36
2017-04-01T06:43:36.245Z,31
2017-04-01T06:44:35.909Z,33
2017-04-01T06:45:36.209Z,31
2017-04-01T06:46:35.887Z,46
2017-04-01T06:47:35.601Z,38
2017-04-01T06:48:35.853Z,90
2017-04-01T06:49:35.530Z,100
2017-04-01T06:50:35.853Z,100
2017-04-01T06:51:36.252Z,38
2017-04-01T06:52:36.223Z,31
2017-04-01T06:53:35.808Z,36
2017-04-01T06:54:36.417Z,90
2017-04-01T06:55:36.076Z,42
2017-04-01T06:56:36.101Z,76
2017-04-01T06:57:35.748Z,40
2017-04-01T06:58:36.047Z,100
2017-04-01T06:59:35.734Z,51
2017-04-01T07:00:36.021Z,34
2017-04-01T07:01:36.016Z,100
2017-04-01T07:02:36.007Z,34
2017-04-01T07:03:35.715Z,30
2017-04-01T07:04:36.037Z,29
2017-04-01T07:05:35.953Z,39
2017-04-01T07:06:35.648Z,40
2017-04-01T07:07:35.939Z,33
2017-04-01T07:08:36.420Z,34
2017-04-01T07:09:36.476Z,44
2017-04-01T07:10:35.596Z,62
2017-04-01T07:11:35.914Z,41
2017-04-01T07:12:35.559Z,100
2017-04-01T07:13:35.548Z,36
2017-04-01T07:14:35.550Z,40
2017-04-01T07:15:35.529Z,61
2017-04-01T07:16:35.518Z,37
2017-04-01T07:17:35.173Z,28
2017-04-01T07:18:35.798Z,100
2017-04-01T07:19:35.788Z,64
2017-04-01T07:20:36.324Z,65
2017-04-01T07:21:36.321Z,61
2017-04-01T07:22:35.542Z,50
2017-04-01T07:23:36.350Z,58
2017-04-01T07:24:36.069Z,49
2017-04-01T07:25:35.713Z,100
2017-04-01T07:26:35.407Z,54
2017-04-01T07:27:35.373Z,45
2017-04-01T07:28:36.020Z,49
2017-04-01T07:29:35.331Z,100
2017-04-01T07:30:35.038Z,76
2017-04-01T07:31:35.341Z,45
2017-04-01T07:32:35.631Z,36
2017-04-01T07:33:35.607Z,36
2017-04-01T07:34:35.595Z,36
2017-04-01T07:35:35.584Z,44
2017-04-01T07:36:35.566Z,35
2017-04-01T07:37:35.563Z,100
2017-04-01T07:38:35.584Z,40
2017-04-01T07:39:35.948Z,33
2017-04-01T07:40:35.522Z,77
2017-04-01T07:41:35.522Z,36
2017-04-01T07:42:35.518Z,44
2017-04-01T07:43:35.169Z,100
2017-04-01T07:44:34.852Z,41
2017-04-01T07:45:35.144Z,33
2017-04-01T07:46:35.141Z,32
2017-04-01T07:47:34.817Z,29
2017-04-01T07:48:35.436Z,33
2017-04-01T07:49:35.462Z,32
2017-04-01T07:50:35.415Z,29
2017-04-01T07:51:35.443Z,74
2017-04-01T07:52:35.229Z,32
2017-04-01T07:53:35.638Z,28
2017-04-01T07:54:35.294Z,32
2017-04-01T07:55:34.849Z,70
2017-04-01T07:56:34.719Z,36
2017-04-01T07:57:34.380Z,32
2017-04-01T07:58:35.000Z,30
2017-04-01T07:59:34.686Z,32
2017-04-01T08:00:35.590Z,31
2017-04-01T08:01:35.322Z,100
2017-04-01T08:02:35.273Z,100
2017-04-01T08:03:35.876Z,30
2017-04-01T08:04:35.202Z,36
2017-04-01T08:05:35.071Z,28
2017-04-01T08:06:35.549Z,31
2017-04-01T08:07:35.622Z,26
2017-04-01T08:08:35.220Z,30
2017-04-01T08:09:35.814Z,30
2017-04-01T08:10:35.178Z,100
2017-04-01T08:11:34.859Z,24
2017-04-01T08:12:34.844Z,56
2017-04-01T08:13:34.839Z,100
2017-04-01T08:14:35.144Z,28
2017-04-01T08:15:34.503Z,34
2017-04-01T08:16:35.123Z,23
2017-04-01T08:17:35.076Z,34
2017-04-01T08:18:35.186Z,100
2017-04-01T08:19:34.776Z,23
2017-04-01T08:20:35.700Z,100
2017-04-01T08:21:35.516Z,100
2017-04-01T08:22:35.570Z,30
2017-04-01T08:23:34.813Z,73
2017-04-01T08:24:35.578Z,25
2017-04-01T08:25:35.252Z,100
2017-04-01T08:26:35.077Z,20
2017-04-01T08:27:35.148Z,30
2017-04-01T08:28:35.028Z,35
2017-04-01T08:29:34.403Z,25
2017-04-01T08:30:35.017Z,92
2017-04-01T08:31:34.394Z,27
2017-04-01T08:32:34.983Z,33
2017-04-01T08:33:34.990Z,24
2017-04-01T08:34:34.974Z,31
2017-04-01T08:35:35.034Z,23
2017-04-01T08:36:34.960Z,34
2017-04-01T08:37:34.994Z,31
2017-04-01T08:38:35.620Z,32
2017-04-01T08:39:35.592Z,21
2017-04-01T08:40:34.934Z,30
2017-04-01T08:41:35.093Z,34
2017-04-01T08:42:35.159Z,22
2017-04-01T08:43:34.655Z,20
2017-04-01T08:44:34.272Z,32
2017-04-01T08:45:35.072Z,100
2017-04-01T08:46:35.092Z,28
2017-04-01T08:47:34.842Z,67
2017-04-01T08:48:34.252Z,29
2017-04-01T08:49:34.865Z,68
2017-04-01T08:50:35.567Z,34
2017-04-01T08:51:35.356Z,22
2017-04-01T08:52:34.708Z,22
2017-04-01T08:53:35.285Z,23
2017-04-01T08:54:35.204Z,22
2017-04-01T08:55:34.292Z,28
2017-04-01T08:56:34.511Z,31
2017-04-01T08:57:34.511Z,98
2017-04-01T08:58:34.492Z,98
2017-04-01T08:59:34.180Z,28
2017-04-01T09:00:34.942Z,20
2017-04-01T09:01:34.788Z,22
2017-04-01T09:02:35.082Z,29
2017-04-01T09:03:34.827Z,31
2017-04-01T09:04:34.765Z,100
2017-04-01T09:05:34.800Z,18
2017-04-01T09:06:34.291Z,21
2017-04-01T09:07:35.345Z,43
2017-04-01T09:08:34.376Z,72
2017-04-01T09:09:35.135Z,100
2017-04-01T09:10:34.972Z,75
2017-04-01T09:11:34.732Z,46
2017-04-01T09:12:34.739Z,61
2017-04-01T09:13:34.395Z,100
2017-04-01T09:14:34.734Z,93
2017-04-01T09:15:34.711Z,65
2017-04-01T09:16:34.695Z,100
2017-04-01T09:17:33.742Z,99
2017-04-01T09:18:34.679Z,93
2017-04-01T09:19:34.244Z,100
2017-04-01T09:20:35.207Z,90
2017-04-01T09:21:35.083Z,100
2017-04-01T09:22:34.978Z,94
2017-04-01T09:23:34.351Z,90
2017-04-01T09:24:35.088Z,100
2017-04-01T09:25:34.745Z,100
2017-04-01T09:26:34.622Z,100
2017-04-01T09:27:34.308Z,91
2017-04-01T09:28:34.300Z,100
2017-04-01T09:29:33.975Z,100
2017-04-01T09:30:34.279Z,92
2017-04-01T09:31:34.641Z,100
2017-04-01T09:32:34.588Z,92
2017-04-01T09:33:34.576Z,100
2017-04-01T09:34:33.652Z,100
2017-04-01T09:35:34.575Z,98
2017-04-01T09:36:34.917Z,100
2017-04-01T09:37:34.961Z,98
2017-04-01T09:38:35.004Z,100
2017-04-01T09:39:34.435Z,100
2017-04-01T09:40:34.730Z,100
2017-04-01T09:41:33.586Z,100
2017-04-01T09:42:34.816Z,100
2017-04-01T09:43:33.988Z,94
2017-04-01T09:44:34.231Z,90
2017-04-01T09:45:34.395Z,100
2017-04-01T09:46:33.889Z,98
2017-04-01T09:47:33.867Z,99
2017-04-01T09:48:34.590Z,98
2017-04-01T09:49:34.277Z,100
2017-04-01T09:50:35.000Z,100
2017-04-01T09:51:34.655Z,100
2017-04-01T09:52:34.862Z,100
2017-04-01T09:53:34.403Z,100
2017-04-01T09:54:34.577Z,100
2017-04-01T09:55:34.630Z,99
2017-04-01T09:56:34.473Z,100
2017-04-01T09:57:34.432Z,94
2017-04-01T09:58:34.607Z,96
2017-04-01T09:59:34.098Z,97
2017-04-01T10:00:34.033Z,100
2017-04-01T10:01:34.096Z,99
2017-04-01T10:02:34.164Z,100
2017-04-01T10:03:34.391Z,100
2017-04-01T10:04:34.395Z,100
2017-04-01T10:05:34.396Z,98
2017-04-01T10:06:34.563Z,96
2017-04-01T10:07:34.561Z,100
2017-04-01T10:08:34.468Z,100
2017-04-01T10:09:34.694Z,99
2017-04-01T10:10:34.528Z,100
2017-04-01T10:11:34.367Z,100
2017-04-01T10:12:34.370Z,100
2017-04-01T10:13:34.037Z,99
2017-04-01T10:14:34.027Z,100
2017-04-01T10:15:34.021Z,98
2017-04-01T10:16:34.014Z,97
2017-04-01T10:17:34.012Z,100
2017-04-01T10:18:34.322Z,98
2017-04-01T10:19:34.324Z,100
2017-04-01T10:20:34.316Z,96
2017-04-01T10:21:34.518Z,93
2017-04-01T10:22:34.303Z,100
2017-04-01T10:23:34.322Z,99
2017-04-01T10:24:34.292Z,100
2017-04-01T10:25:34.302Z,94
2017-04-01T10:26:33.983Z,91
2017-04-01T10:27:34.301Z,100
2017-04-01T10:28:34.267Z,85
2017-04-01T10:29:34.300Z,93
2017-04-01T10:30:34.258Z,100
2017-04-01T10:31:34.261Z,100
2017-04-01T10:32:34.253Z,97
2017-04-01T10:33:34.254Z,88
2017-04-01T10:34:34.291Z,100
2017-04-01T10:35:34.552Z,100
2017-04-01T10:36:33.829Z,100
2017-04-01T10:37:33.761Z,100
2017-04-01T10:38:34.174Z,100
2017-04-01T10:39:34.416Z,100
2017-04-01T10:40:34.441Z,93
2017-04-01T10:41:34.214Z,100
2017-04-01T10:42:34.374Z,100
2017-04-01T10:43:34.210Z,100
2017-04-01T10:44:33.579Z,100
2017-04-01T10:45:33.569Z,100
2017-04-01T10:46:34.246Z,100
2017-04-01T10:47:34.373Z,100
2017-04-01T10:48:34.034Z,100
2017-04-01T10:49:33.480Z,100
2017-04-01T10:50:34.719Z,100
2017-04-01T10:51:34.182Z,100
2017-04-01T10:52:34.167Z,100
2017-04-01T10:53:33.870Z,100
2017-04-01T10:54:34.173Z,100
2017-04-01T10:55:34.030Z,100
2017-04-01T10:56:33.924Z,100
2017-04-01T10:57:33.534Z,100
2017-04-01T10:58:33.975Z,100
2017-04-01T10:59:33.545Z,100
2017-04-01T11:00:34.322Z,100
2017-04-01T11:01:34.142Z,100
2017-04-01T11:02:33.597Z,100
2017-04-01T11:03:33.830Z,100
2017-04-01T11:04:34.110Z,100
2017-04-01T11:05:34.105Z,100
2017-04-01T11:06:33.807Z,100
2017-04-01T11:07:34.872Z,100
2017-04-01T11:08:33.995Z,100
2017-04-01T11:09:34.006Z,100
2017-04-01T11:10:34.117Z,100
2017-04-01T11:11:33.797Z,100
2017-04-01T11:12:34.200Z,100
2017-04-01T11:13:33.835Z,100
2017-04-01T11:14:33.445Z,100
2017-04-01T11:15:34.072Z,100
2017-04-01T11:16:33.744Z,100
2017-04-01T11:17:34.048Z,100
2017-04-01T11:18:33.739Z,100
2017-04-01T11:19:34.058Z,100
2017-04-01T11:20:33.734Z,100
2017-04-01T11:21:34.034Z,100
2017-04-01T11:22:33.311Z,100
2017-04-01T11:23:33.094Z,100
2017-04-01T11:24:34.074Z,100
2017-04-01T11:25:34.363Z,100
2017-04-01T11:26:34.019Z,100
2017-04-01T11:27:33.986Z,100
2017-04-01T11:28:33.850Z,100
2017-04-01T11:29:34.003Z,100
2017-04-01T11:30:34.004Z,100
2017-04-01T11:31:34.000Z,100
2017-04-01T11:32:34.003Z,100
2017-04-01T11:33:33.704Z,100
2017-04-01T11:34:33.382Z,100
2017-04-01T11:35:34.483Z,100
2017-04-01T11:36:33.673Z,100
2017-04-01T11:37:33.984Z,100
2017-04-01T11:38:34.418Z,100
2017-04-01T11:39:34.859Z,100
2017-04-01T11:40:34.622Z,100
2017-04-01T11:41:33.972Z,100
2017-04-01T11:42:33.357Z,100
2017-04-01T11:43:33.973Z,100
2017-04-01T11:44:33.649Z,100
2017-04-01T11:45:33.963Z,100
2017-04-01T11:46:33.647Z,100
2017-04-01T11:47:33.990Z,100
2017-04-01T11:48:33.940Z,100
2017-04-01T11:49:33.949Z,100
2017-04-01T11:50:33.936Z,100
2017-04-01T11:51:33.639Z,100
2017-04-01T11:52:33.617Z,100
2017-04-01T11:53:33.629Z,100
2017-04-01T11:54:33.930Z,97
2017-04-01T11:55:33.939Z,100
2017-04-01T11:56:33.920Z,95
2017-04-01T11:57:33.309Z,88
2017-04-01T11:58:33.318Z,100
2017-04-01T11:59:33.923Z,90
2017-04-01T12:00:33.583Z,95
2017-04-01T12:01:33.904Z,81
2017-04-01T12:02:33.573Z,85
2017-04-01T12:03:33.343Z,92
2017-04-01T12:04:33.573Z,100
2017-04-01T12:05:33.885Z,97
2017-04-01T12:06:33.874Z,99
2017-04-01T12:07:33.555Z,81
2017-04-01T12:08:33.859Z,74
2017-04-01T12:09:33.862Z,100
2017-04-01T12:10:34.306Z,91
2017-04-01T12:11:33.842Z,100
2017-04-01T12:12:33.520Z,74
2017-04-01T12:13:33.525Z,100
2017-04-01T12:14:33.511Z,100
2017-04-01T12:15:33.861Z,100
2017-04-01T12:16:33.506Z,100
2017-04-01T12:17:33.503Z,100
2017-04-01T12:18:33.499Z,100
2017-04-01T12:19:33.487Z,100
2017-04-01T12:20:33.480Z,100
2017-04-01T12:21:33.469Z,100
2017-04-01T12:22:33.777Z,100
2017-04-01T12:23:33.784Z,100
2017-04-01T12:24:34.420Z,100
2017-04-01T12:25:34.146Z,100
2017-04-01T12:26:33.794Z,100
2017-04-01T12:27:33.444Z,100
2017-04-01T12:28:33.492Z,100
2017-04-01T12:29:33.768Z,100
2017-04-01T12:30:33.443Z,100
2017-04-01T12:31:33.765Z,100
2017-04-01T12:32:33.576Z,100
2017-04-01T12:33:33.778Z,100
2017-04-01T12:34:33.423Z,100
2017-04-01T12:35:33.112Z,100
2017-04-01T12:36:33.935Z,100
2017-04-01T12:37:33.503Z,99
2017-04-01T12:38:33.986Z,100
2017-04-01T12:39:33.796Z,100
2017-04-01T12:40:34.205Z,99
2017-04-01T12:41:33.397Z,100
2017-04-01T12:42:33.408Z,100
2017-04-01T12:43:33.608Z,100
2017-04-01T12:44:33.074Z,100
2017-04-01T12:45:33.443Z,100
2017-04-01T12:46:33.708Z,100
2017-04-01T12:47:33.071Z,100
2017-04-01T12:48:33.395Z,98
2017-04-01T12:49:33.376Z,100
2017-04-01T12:50:33.394Z,95
2017-04-01T12:51:33.407Z,100
2017-04-01T12:52:33.692Z,92
2017-04-01T12:53:33.063Z,100
2017-04-01T12:54:34.293Z,98
2017-04-01T12:55:34.264Z,100
2017-04-01T12:56:33.332Z,100
2017-04-01T12:57:33.699Z,95
2017-04-01T12:58:33.326Z,100
2017-04-01T12:59:33.641Z,95
2017-04-01T13:00:33.333Z,100
2017-04-01T13:01:33.644Z,99
2017-04-01T13:02:33.326Z,100
2017-04-01T13:03:33.303Z,100
2017-04-01T13:04:33.615Z,100
2017-04-01T13:05:32.987Z,100
2017-04-01T13:06:33.614Z,100
2017-04-01T13:07:33.615Z,100
2017-04-01T13:08:33.286Z,99
2017-04-01T13:09:33.298Z,100
2017-04-01T13:10:34.311Z,100
2017-04-01T13:11:32.957Z,100
2017-04-01T13:12:33.595Z,100
2017-04-01T13:13:32.944Z,100
2017-04-01T13:14:33.569Z,100
2017-04-01T13:15:32.968Z,100
2017-04-01T13:16:33.661Z,99
2017-04-01T13:17:33.558Z,100
2017-04-01T13:18:33.602Z,100
2017-04-01T13:19:33.684Z,100
2017-04-01T13:20:33.949Z,100
2017-04-01T13:21:33.659Z,100
2017-04-01T13:22:33.781Z,100
2017-04-01T13:23:33.592Z,100
2017-04-01T13:24:33.516Z,100
2017-04-01T13:25:33.387Z,100
2017-04-01T13:26:32.927Z,100
2017-04-01T13:27:33.189Z,100
2017-04-01T13:28:32.577Z,100
2017-04-01T13:29:33.494Z,100
2017-04-01T13:30:33.186Z,100
2017-04-01T13:31:33.183Z,100
2017-04-01T13:32:33.479Z,98
2017-04-01T13:33:33.474Z,100
2017-04-01T13:34:33.168Z,100
2017-04-01T13:35:32.531Z,100
2017-04-01T13:36:33.057Z,100
2017-04-01T13:37:33.560Z,100
2017-04-01T13:38:33.143Z,100
2017-04-01T13:39:33.781Z,100
2017-04-01T13:40:33.749Z,100
2017-04-01T13:41:33.429Z,100
2017-04-01T13:42:33.114Z,100
2017-04-01T13:43:33.436Z,94
2017-04-01T13:44:32.797Z,90
2017-04-01T13:45:32.827Z,100
2017-04-01T13:46:33.103Z,92
2017-04-01T13:47:33.411Z,100
2017-04-01T13:48:32.789Z,100
2017-04-01T13:49:33.396Z,100
2017-04-01T13:50:33.398Z,99
2017-04-01T13:51:33.071Z,100
2017-04-01T13:52:33.063Z,100
2017-04-01T13:53:33.058Z,100
2017-04-01T13:54:33.442Z,100
2017-04-01T13:55:33.597Z,100
2017-04-01T13:56:32.767Z,100
2017-04-01T13:57:33.369Z,89
2017-04-01T13:58:33.350Z,94
2017-04-01T13:59:33.035Z,91
2017-04-01T14:00:33.343Z,88
2017-04-01T14:01:33.025Z,100
2017-04-01T14:02:33.334Z,100
2017-04-01T14:03:33.327Z,100
2017-04-01T14:04:33.008Z,100
2017-04-01T14:05:33.325Z,94
2017-04-01T14:06:33.403Z,94
2017-04-01T14:07:33.319Z,100
2017-04-01T14:08:33.625Z,100
2017-04-01T14:09:33.293Z,100
2017-04-01T14:10:34.148Z,98
2017-04-01T14:11:32.990Z,99
2017-04-01T14:12:33.301Z,100
2017-04-01T14:13:32.984Z,98
2017-04-01T14:14:32.666Z,95
2017-04-01T14:15:32.987Z,92
2017-04-01T14:16:33.293Z,100